createdAt,value
2022-09-07T00:02:38.821Z,18.83
2022-09-07T00:06:01.115Z,18.84
2022-09-07T00:09:22.913Z,18.85
2022-09-07T00:12:44.618Z,18.86
2022-09-07T00:16:08.154Z,18.86
2022-09-07T00:19:31.144Z,18.87
2022-09-07T00:22:53.096Z,18.88
2022-09-07T00:26:17.035Z,18.87
2022-09-07T00:29:38.817Z,18.87
2022-09-07T00:33:01.009Z,18.86
2022-09-07T00:36:24.604Z,18.85
2022-09-07T00:39:47.044Z,18.86
2022-09-07T00:43:10.257Z,18.86
2022-09-07T00:46:33.022Z,18.86
2022-09-07T00:49:58.212Z,18.86
2022-09-07T00:53:27.186Z,18.86
2022-09-07T00:56:52.733Z,18.84
2022-09-07T01:00:15.067Z,18.84
2022-09-07T01:03:42.775Z,18.79
2022-09-07T01:07:05.570Z,18.78
2022-09-07T01:10:31.907Z,18.76
2022-09-07T01:13:55.037Z,18.75
2022-09-07T01:17:25.066Z,18.72
2022-09-07T01:21:02.342Z,18.70
2022-09-07T01:24:41.595Z,18.67
2022-09-07T01:28:13.212Z,18.64
2022-09-07T01:31:43.576Z,18.62
2022-09-07T01:35:12.773Z,18.61
2022-09-07T01:38:42.515Z,18.60
2022-09-07T01:42:09.582Z,18.59
2022-09-07T01:45:37.110Z,18.57
2022-09-07T01:49:04.627Z,18.57
2022-09-07T01:52:35.445Z,18.55
2022-09-07T01:56:00.133Z,18.53
2022-09-07T01:59:29.268Z,18.48
2022-09-07T02:02:56.761Z,18.43
2022-09-07T02:06:25.005Z,18.37
2022-09-07T02:09:51.719Z,18.33
2022-09-07T02:13:19.355Z,18.28
2022-09-07T02:16:50.022Z,18.21
2022-09-07T02:20:18.672Z,18.17
2022-09-07T02:23:48.017Z,18.14
2022-09-07T02:27:16.307Z,18.10
2022-09-07T02:30:38.879Z,18.06
2022-09-07T02:34:01.367Z,18.03
2022-09-07T02:37:28.332Z,17.98
2022-09-07T02:40:52.413Z,17.90
2022-09-07T02:44:18.563Z,17.84
2022-09-07T02:48:04.747Z,17.77
2022-09-07T02:51:37.203Z,17.72
2022-09-07T02:55:10.976Z,17.69
2022-09-07T02:58:41.635Z,17.66
2022-09-07T03:02:08.940Z,17.63
2022-09-07T03:05:40.221Z,17.62
2022-09-07T03:09:08.326Z,17.62
2022-09-07T03:12:42.037Z,17.61
2022-09-07T03:16:04.091Z,17.62
2022-09-07T03:19:25.854Z,17.63
2022-09-07T03:22:50.254Z,17.62
2022-09-07T03:26:23.836Z,17.62
2022-09-07T03:29:47.009Z,17.64
2022-09-07T03:33:09.199Z,17.60
2022-09-07T03:36:31.853Z,17.59
2022-09-07T03:39:54.202Z,17.59
2022-09-07T03:43:15.987Z,17.60
2022-09-07T03:46:39.021Z,17.58
2022-09-07T03:50:00.818Z,17.55
2022-09-07T03:53:23.005Z,17.54
2022-09-07T03:56:44.617Z,17.53
2022-09-07T04:00:07.547Z,17.49
2022-09-07T04:03:35.815Z,17.45
2022-09-07T04:06:57.726Z,17.39
2022-09-07T04:10:19.391Z,17.33
2022-09-07T04:13:41.920Z,17.29
2022-09-07T04:17:03.824Z,17.23
2022-09-07T04:20:27.327Z,17.19
2022-09-07T04:23:49.819Z,17.16
2022-09-07T04:27:11.314Z,17.13
2022-09-07T04:30:35.722Z,17.12
2022-09-07T04:33:57.801Z,17.11
2022-09-07T04:37:20.975Z,17.07
2022-09-07T04:40:43.419Z,17.06
2022-09-07T04:44:06.156Z,17.02
2022-09-07T04:47:30.625Z,17.00
2022-09-07T04:50:53.242Z,16.97
2022-09-07T04:54:16.281Z,16.92
2022-09-07T04:57:38.414Z,16.88
2022-09-07T05:01:02.422Z,16.90
2022-09-07T05:04:24.045Z,16.88
2022-09-07T05:07:46.129Z,16.86
2022-09-07T05:11:10.261Z,16.84
2022-09-07T05:14:32.116Z,16.81
2022-09-07T05:17:53.842Z,16.77
2022-09-07T05:21:17.350Z,16.76
2022-09-07T05:24:39.341Z,16.75
2022-09-07T05:28:03.840Z,16.75
2022-09-07T05:31:25.669Z,16.75
2022-09-07T05:34:49.649Z,16.76
2022-09-07T05:38:12.867Z,16.78
2022-09-07T05:41:34.930Z,16.79
2022-09-07T05:44:58.208Z,16.83
2022-09-07T05:48:20.274Z,16.88
2022-09-07T05:51:41.940Z,16.92
2022-09-07T05:55:26.298Z,17.00
2022-09-07T05:58:49.919Z,17.06
2022-09-07T06:02:15.568Z,17.09
2022-09-07T06:05:37.370Z,17.12
2022-09-07T06:08:59.952Z,17.18
2022-09-07T06:12:21.875Z,17.22
2022-09-07T06:15:43.601Z,17.26
2022-09-07T06:19:08.334Z,17.29
2022-09-07T06:22:31.350Z,17.33
2022-09-07T06:25:53.292Z,17.35
2022-09-07T06:29:15.141Z,17.38
2022-09-07T06:36:07.126Z,17.46
2022-09-07T06:39:30.587Z,17.49
2022-09-07T06:42:55.614Z,17.51
2022-09-07T06:50:00.211Z,17.55
2022-09-07T06:53:40.722Z,17.55
2022-09-07T06:57:09.228Z,17.60
2022-09-07T07:00:31.487Z,17.61
2022-09-07T07:03:54.620Z,17.67
2022-09-07T07:07:16.525Z,17.70
2022-09-07T07:10:40.408Z,17.68
2022-09-07T07:14:02.380Z,17.72
2022-09-07T07:17:24.175Z,17.78
2022-09-07T07:20:45.912Z,17.84
2022-09-07T07:24:08.553Z,17.89
2022-09-07T07:27:32.609Z,17.93
2022-09-07T07:30:56.744Z,17.99
2022-09-07T07:34:19.080Z,18.05
2022-09-07T07:37:41.069Z,18.10
2022-09-07T07:44:45.968Z,18.22
2022-09-07T07:48:08.114Z,18.28
2022-09-07T07:51:30.542Z,18.36
2022-09-07T07:54:52.425Z,18.43
2022-09-07T07:58:14.769Z,18.50
2022-09-07T08:01:38.526Z,18.48
2022-09-07T08:05:00.207Z,18.53
2022-09-07T08:08:23.590Z,18.61
2022-09-07T08:11:45.368Z,18.63
2022-09-07T08:15:08.317Z,18.70
2022-09-07T08:18:34.575Z,18.77
2022-09-07T08:21:56.769Z,18.86
2022-09-07T08:25:19.211Z,18.91
2022-09-07T08:28:43.942Z,18.97
2022-09-07T08:32:07.269Z,19.05
2022-09-07T08:35:30.647Z,19.10
2022-09-07T08:38:52.753Z,19.15
2022-09-07T08:42:43.214Z,19.19
2022-09-07T08:46:27.868Z,19.24
2022-09-07T08:49:53.724Z,19.29
2022-09-07T08:53:18.338Z,19.36
2022-09-07T09:00:28.652Z,19.52
2022-09-07T09:07:43.590Z,19.69
2022-09-07T09:11:12.671Z,19.76
2022-09-07T09:14:57.417Z,19.82
2022-09-07T09:18:35.475Z,19.90
2022-09-07T09:22:09.164Z,19.98
2022-09-07T09:25:34.591Z,20.02
2022-09-07T09:28:58.072Z,20.12
2022-09-07T09:32:39.863Z,20.23
2022-09-07T09:36:02.313Z,20.32
2022-09-07T09:39:30.154Z,20.43
2022-09-07T09:43:02.047Z,20.53
2022-09-07T09:46:28.675Z,20.51
2022-09-07T09:49:52.821Z,20.64
2022-09-07T09:53:25.531Z,20.75
2022-09-07T09:56:49.327Z,20.83
2022-09-07T10:00:27.511Z,20.92
2022-09-07T10:07:22.121Z,21.11
2022-09-07T10:10:59.488Z,21.15
2022-09-07T10:14:28.770Z,21.27
2022-09-07T10:17:51.981Z,21.37
2022-09-07T10:21:24.643Z,21.52
2022-09-07T10:24:46.393Z,21.64
2022-09-07T10:28:19.494Z,21.74
2022-09-07T10:32:14.564Z,21.84
2022-09-07T10:35:45.478Z,21.93
2022-09-07T10:39:15.998Z,22.07
2022-09-07T10:43:20.695Z,22.19
2022-09-07T10:46:58.602Z,22.32
2022-09-07T10:50:31.035Z,22.44
2022-09-07T10:58:08.514Z,22.65
2022-09-07T11:01:43.279Z,22.78
2022-09-07T11:05:16.258Z,22.88
2022-09-07T11:12:37.343Z,23.09
2022-09-07T11:16:04.837Z,23.16
2022-09-07T11:19:35.803Z,23.22
2022-09-07T11:23:11.174Z,23.30
2022-09-07T11:26:41.227Z,23.36
2022-09-07T11:30:07.350Z,23.42
2022-09-07T11:33:35.388Z,23.49
2022-09-07T11:37:02.138Z,23.61
2022-09-07T11:40:28.424Z,23.73
2022-09-07T11:43:58.275Z,23.79
2022-09-07T11:47:27.857Z,23.91
2022-09-07T11:50:57.494Z,23.98
2022-09-07T11:54:30.083Z,24.12
2022-09-07T11:58:17.564Z,24.20
2022-09-07T12:01:51.604Z,24.30
2022-09-07T12:05:25.418Z,24.38
2022-09-07T12:09:05.511Z,24.49
2022-09-07T12:12:43.765Z,24.60
2022-09-07T12:16:11.961Z,24.67
2022-09-07T12:19:33.678Z,24.77
2022-09-07T12:23:05.707Z,24.85
2022-09-07T12:26:55.202Z,24.95
2022-09-07T12:30:55.516Z,25.05
2022-09-07T12:34:40.651Z,25.11
2022-09-07T12:38:03.727Z,25.18
2022-09-07T12:41:41.076Z,25.25
2022-09-07T12:45:36.186Z,25.31
2022-09-07T12:49:07.356Z,25.39
2022-09-07T12:53:09.934Z,25.41
2022-09-07T12:56:42.703Z,25.48
2022-09-07T13:00:16.840Z,25.48
2022-09-07T13:04:02.494Z,25.47
2022-09-07T13:07:41.734Z,25.42
2022-09-07T13:11:18.030Z,25.32
2022-09-07T13:14:42.229Z,25.29
2022-09-07T13:18:05.087Z,25.25
2022-09-07T13:21:39.337Z,25.23
2022-09-07T13:25:03.755Z,25.24
2022-09-07T13:28:41.081Z,25.23
2022-09-07T13:32:11.168Z,25.20
2022-09-07T13:35:33.809Z,25.18
2022-09-07T13:38:56.496Z,25.14
2022-09-07T13:42:23.299Z,25.10
2022-09-07T13:46:01.472Z,25.07
2022-09-07T13:49:39.666Z,25.03
2022-09-07T13:53:38.808Z,24.95
2022-09-07T13:57:18.249Z,24.91
2022-09-07T14:00:53.224Z,24.89
2022-09-07T14:04:23.802Z,24.88
2022-09-07T14:07:52.139Z,24.88
2022-09-07T14:11:23.346Z,24.90
2022-09-07T14:14:45.082Z,24.92
2022-09-07T14:18:14.548Z,24.96
2022-09-07T14:21:36.807Z,24.99
2022-09-07T14:25:09.323Z,24.99
2022-09-07T14:28:33.963Z,25.05
2022-09-07T14:31:55.814Z,25.07
2022-09-07T14:35:21.258Z,25.11
2022-09-07T14:42:25.941Z,25.21
2022-09-07T14:45:49.416Z,25.22
2022-09-07T14:49:20.814Z,25.27
2022-09-07T14:53:33.906Z,25.34
2022-09-07T14:56:31.530Z,25.40
2022-09-07T14:59:57.334Z,25.41
2022-09-07T15:03:29.626Z,25.39
2022-09-07T15:07:06.596Z,25.43
2022-09-07T15:10:38.380Z,25.51
2022-09-07T15:14:10.040Z,25.48
2022-09-07T15:17:48.998Z,25.47
2022-09-07T15:21:11.100Z,25.47
2022-09-07T15:24:32.819Z,25.33
2022-09-07T15:28:01.850Z,25.35
2022-09-07T15:35:05.696Z,25.39
2022-09-07T15:45:52.640Z,25.39
2022-09-07T15:49:14.519Z,25.34
2022-09-07T15:52:37.990Z,25.32
2022-09-07T15:56:03.242Z,25.28
2022-09-07T15:59:25.202Z,25.25
2022-09-07T16:03:06.175Z,25.21
2022-09-07T16:06:29.541Z,25.15
2022-09-07T16:09:52.540Z,25.10
2022-09-07T16:13:16.932Z,25.03
2022-09-07T16:20:21.938Z,24.90
2022-09-07T16:23:47.169Z,24.85
2022-09-07T16:27:08.858Z,24.80
2022-09-07T16:30:31.188Z,24.75
2022-09-07T16:33:53.506Z,24.69
2022-09-07T16:37:16.935Z,24.66
2022-09-07T16:40:42.251Z,24.63
2022-09-07T16:44:04.188Z,24.58
2022-09-07T16:47:26.062Z,24.56
2022-09-07T16:51:01.164Z,24.51
2022-09-07T16:54:25.186Z,24.50
2022-09-07T17:01:30.328Z,24.43
2022-09-07T17:04:52.218Z,24.38
2022-09-07T17:08:14.286Z,24.28
2022-09-07T17:11:37.863Z,24.25
2022-09-07T17:14:59.697Z,24.22
2022-09-07T17:19:28.778Z,24.16
2022-09-07T17:22:05.150Z,24.06
2022-09-07T17:25:28.243Z,23.97
2022-09-07T17:28:53.052Z,23.87
2022-09-07T17:32:29.838Z,23.75
2022-09-07T17:35:53.566Z,23.59
2022-09-07T17:39:17.678Z,23.47
2022-09-07T17:46:25.996Z,23.22
2022-09-07T17:49:47.914Z,23.15
2022-09-07T17:53:09.838Z,23.07
2022-09-07T17:56:32.182Z,22.97
2022-09-07T18:03:36.832Z,22.81
2022-09-07T18:06:58.693Z,22.73
2022-09-07T18:10:20.039Z,22.65
2022-09-07T18:13:45.955Z,22.57
2022-09-07T18:17:07.459Z,22.50
2022-09-07T18:20:33.507Z,22.40
2022-09-07T18:23:56.694Z,22.31
2022-09-07T18:27:21.057Z,22.25
2022-09-07T18:30:43.014Z,22.19
2022-09-07T18:34:04.663Z,22.14
2022-09-07T18:37:28.319Z,22.10
2022-09-07T18:48:07.904Z,21.93
2022-09-07T18:51:30.905Z,21.87
2022-09-07T18:54:54.061Z,21.85
2022-09-07T18:58:16.297Z,21.85
2022-09-07T19:01:39.462Z,21.85
2022-09-07T19:08:45.618Z,21.86
2022-09-07T19:12:10.031Z,21.87
2022-09-07T19:15:37.134Z,21.87
2022-09-07T19:19:01.646Z,21.87
2022-09-07T19:22:23.390Z,21.87
2022-09-07T19:25:45.475Z,21.85
2022-09-07T19:29:15.398Z,21.82
2022-09-07T19:32:37.386Z,21.79
2022-09-07T19:35:59.047Z,21.76
2022-09-07T19:39:20.934Z,21.71
2022-09-07T19:42:42.859Z,21.68
2022-09-07T19:46:06.295Z,21.64
2022-09-07T19:49:28.272Z,21.61
2022-09-07T19:52:50.454Z,21.59
2022-09-07T19:56:14.235Z,21.57
2022-09-07T19:59:35.969Z,21.54
2022-09-07T20:02:59.737Z,21.52
2022-09-07T20:06:21.118Z,21.50
2022-09-07T20:09:42.985Z,21.49
2022-09-07T20:13:04.667Z,21.47
2022-09-07T20:16:28.008Z,21.44
2022-09-07T20:19:51.658Z,21.42
2022-09-07T20:23:13.303Z,21.38
2022-09-07T20:26:35.123Z,21.35
2022-09-07T20:29:57.164Z,21.32
2022-09-07T20:33:19.374Z,21.30
2022-09-07T20:36:42.356Z,21.27
2022-09-07T20:40:05.914Z,21.24
2022-09-07T20:43:28.234Z,21.22
2022-09-07T20:46:50.003Z,21.19
2022-09-07T20:50:11.818Z,21.16
2022-09-07T20:53:38.440Z,21.11
2022-09-07T20:57:03.374Z,21.08
2022-09-07T21:00:27.329Z,21.07
2022-09-07T21:03:50.717Z,21.05
2022-09-07T21:07:12.465Z,21.03
2022-09-07T21:10:42.102Z,21.00
2022-09-07T21:14:13.022Z,20.96
2022-09-07T21:17:38.749Z,20.95
2022-09-07T21:21:19.257Z,20.91
2022-09-07T21:24:42.180Z,20.88
2022-09-07T21:28:05.401Z,20.87
2022-09-07T21:31:28.413Z,20.82
2022-09-07T21:34:50.129Z,20.80
2022-09-07T21:38:11.890Z,20.78
2022-09-07T21:41:33.672Z,20.73
2022-09-07T21:44:56.391Z,20.68
2022-09-07T21:48:18.170Z,20.64
2022-09-07T21:51:40.430Z,20.63
2022-09-07T21:55:02.360Z,20.60
2022-09-07T21:58:24.278Z,20.58
2022-09-07T22:01:47.669Z,20.54
2022-09-07T22:05:10.129Z,20.52
2022-09-07T22:08:32.921Z,20.49
2022-09-07T22:11:54.686Z,20.46
2022-09-07T22:15:16.351Z,20.39
2022-09-07T22:18:40.705Z,20.33
2022-09-07T22:22:02.165Z,20.27
2022-09-07T22:25:24.199Z,20.21
2022-09-07T22:28:45.904Z,20.15
2022-09-07T22:32:07.597Z,20.11
2022-09-07T22:35:30.974Z,20.05
2022-09-07T22:38:54.819Z,20.00
2022-09-07T22:42:16.234Z,19.94
2022-09-07T22:45:38.301Z,19.88
2022-09-07T22:49:00.853Z,19.83
2022-09-07T22:52:24.133Z,19.74
2022-09-07T22:55:45.585Z,19.65
2022-09-07T22:59:08.980Z,19.55
2022-09-07T23:02:31.943Z,19.43
2022-09-07T23:05:55.750Z,19.32
2022-09-07T23:09:20.830Z,19.21
2022-09-07T23:12:42.718Z,19.12
2022-09-07T23:16:06.115Z,19.03
2022-09-07T23:19:27.981Z,18.95
2022-09-07T23:22:49.971Z,18.90
2022-09-07T23:26:12.622Z,18.85
2022-09-07T23:29:34.529Z,18.78
2022-09-07T23:32:56.617Z,18.72
2022-09-07T23:36:19.868Z,18.67
2022-09-07T23:39:41.941Z,18.62
2022-09-07T23:43:05.149Z,18.60
2022-09-07T23:46:27.169Z,18.55
2022-09-07T23:49:48.984Z,18.52
2022-09-07T23:53:10.456Z,18.49
2022-09-07T23:56:32.704Z,18.50
2022-09-07T23:59:55.774Z,18.50
